Hovedside
METAR-TAF:

METAR-TAF

Lufthavner :

Gove Peninsula, Australia

breddegrad: 12-16-12S, lengdegrad: 136-49-06E, høyde over havet: 62 m

Gjeldene værobservasjon

Denne rapporten ble laget for 41 minutter siden, klokken 19:30 UTC
Vind 3 kt fra Sør
Temperatur 23°C
Luftfuktighet 94%
Trykk 1011 hPa
Sikt 10 km eller mer
Spredte skyer i en høyde av 1500 ft

METAR: YPGV 241930Z AUTO 17003KT 9999 // SCT015 23/22 Q1011 RF00.0/000.0

Tid: 05:41 (20:11 UTC)

Varsel

Denne rapporten ble laget for 52 minutter siden, klokken 19:19 UTC
Varsel gyldig fra 24. klokken 20 UTC til 25. klokken 08 UTC
Vind 6 kt fra Sørøst
Sikt 10 km eller mer
Brutte skyer i en høyde av 1500 ft
Fra 24. klokken 2300 UTC
Vind 12 kt fra Øst-sørøst
Sikt: 3000 m
Brutte skyer i en høyde av 1500 ft
Brutte skyer i en høyde av 800 ft
regnbyger,

TAF: YPGV 241919Z 2420/2508 14006KT 9999 BKN015 FM242300 12012KT 9999 BKN015 INTER 2503/2508 3000 SHRA BKN008

Værobservasjoner og værvarsel for over 4000 flyplasser (METAR- og TAF-rapporter).

Tilgjengelige stasjoner er representert av de røde og gule prikkene på kartet.

Hold musepekeren over prikken for å se navnet på stasjonen.

Klikk så for å se værobservasjoner og -varsler.

For å forandre kartet kan du klikke på den grønne knappen med svart kryss for å zoome inn, på den grønne knappen med strek for å zoome ut, eller på de grønne pilene for å se tilstøtende kart.


METAR-TAF: